WETTERDATEN

GESTERN
Time Temp. Taup. r.Fe. Windrich Windstärke Windböe Druck 1h Prec. 24h Prec.
00:04 14.1 8.7 70 142 0.6 0.8 1012.3 0.0000 0.0000
00:15 14.1 8.7 70 144 0.3 0.8 1012.3 0.0000 0.0000
00:25 14 8.6 70 154 0.3 0.6 1012.2 0.0000 0.0000
00:35 14 8.6 70 156 0.3 0.6 1012.2 0.0000 0.0000
00:44 13.9 8.5 70 148 0.3 0.8 1012.2 0.0000 0.0000
00:55 13.9 8.5 70 147 0.3 0.6 1012.2 0.0000 0.0000
01:05 13.8 8.4 70 154 0.3 0.6 1012 0.0000 0.0000
01:15 13.8 8.4 70 150 0.3 0.6 1011.9 0.0000 0.0000
01:26 13.8 8.6 71 149 0.3 0.6 1011.9 0.0000 0.0000
01:35 13.7 8.5 71 148 0.3 0.8 1011.7 0.0000 0.0000
01:45 13.7 8.5 71 153 0.3 0.6 1011.6 0.0000 0.0000
01:55 13.7 8.5 71 139 0.6 1.1 1011.7 0.0000 0.0000
02:06 13.6 8.4 71 150 0.3 0.8 1011.5 0.0000 0.0000
02:13 13.6 8.4 71 146 0.6 0.8 1011.4 0.0000 0.0000
02:24 13.6 8.4 71 142 0.6 1.1 1011.4 0.0000 0.0000
02:33 13.6 8.4 71 145 0.6 0.8 1011.2 0.0000 0.0000
02:43 13.5 8.4 71 145 0.6 1.1 1011.3 0.0000 0.0000
02:54 13.5 8.4 71 135 0.8 1.1 1011.2 0.0000 0.0000
03:04 13.5 8.4 71 158 0.3 0.6 1010.9 0.0000 0.0000
03:13 13.5 8.6 72 153 0.3 0.6 1010.9 0.0000 0.0000
03:23 13.5 8.6 72 146 0.6 1.1 1010.8 0.0000 0.0000
03:34 13.5 8.6 72 149 0.6 0.8 1010.7 0.0000 0.0000
03:44 13.4 8.5 72 152 0.3 0.6 1010.6 0.0000 0.0000
03:54 13.4 8.5 72 149 0.3 0.6 1010.6 0.0000 0.0000
04:04 13.3 8.4 72 153 0.3 0.6 1010.4 0.0000 0.0000
04:14 13.3 8.4 72 147 0.3 0.6 1010.3 0.0000 0.0000
04:24 13.3 8.4 72 153 0.3 0.6 1010.4 0.0000 0.0000
04:34 13.2 8.3 72 154 0.3 0.8 1010.3 0.0000 0.0000
05:04 13.1 8.2 72 154 0.3 0.6 1010.3 0.0000 0.0000
05:15 13.1 8.4 73 149 0.3 0.8 1010.1 0.0000 0.0000
05:25 13.1 8.4 73 143 0.6 1.1 1010.1 0.0000 0.0000
05:35 13.1 8.4 73 136 0.6 1.4 1009.9 0.0000 0.0000
05:44 13 8.3 73 147 0.8 1.4 1010 0.0000 0.0000
05:55 13 8.3 73 153 0.3 0.6 1009.9 0.0000 0.0000
06:05 13 8.3 73 154 0.3 0.6 1010 0.0000 0.0000
06:15 13 8.3 73 153 0.3 0.6 1009.7 0.0000 0.0000
06:25 13 8.3 73 142 0.6 1.4 1009.7 0.0000 0.0000
06:35 13 8.3 73 142 0.8 1.7 1009.9 0.0000 0.0000
06:45 13 8.3 73 143 0.6 1.1 1009.5 0.0000 0.0000
06:55 13 8.5 74 135 0.8 1.4 1009.6 0.0000 0.0000
07:06 13 8.5 74 150 0.3 0.8 1009.5 0.0000 0.0000
07:16 13 8.5 74 139 0.6 1.4 1009.5 0.0000 0.0000
07:25 13 8.5 74 136 0.6 1.1 1009.6 0.0000 0.0000
07:36 13 8.5 74 154 0.6 0.8 1009.6 0.0000 0.0000
07:46 13 8.5 74 156 0.6 0.8 1009.7 0.0000 0.0000
07:56 13 8.5 74 154 0.3 0.6 1009.9 0.0000 0.0000
08:05 13 8.5 74 154 0.3 0.6 1009.9 0.0000 0.0000
08:16 13 8.5 74 147 0.6 0.8 1009.7 0.0000 0.0000
08:26 13 8.5 74 150 0.6 0.8 1009.7 0.0000 0.0000
08:36 13 8.5 74 149 0.8 1.4 1010.1 0.0000 0.0000
08:46 13 8.5 74 138 0.8 1.4 1010.1 0.0000 0.0000
08:56 13.1 8.8 75 154 0.6 0.8 1010.2 0.0000 0.0000
09:06 13.1 8.6 74 154 0.6 1.1 1010.1 0.0000 0.0000
09:16 13.1 8.6 74 154 0.6 1.4 1010.2 0.0000 0.0000
09:27 13.1 8.8 75 170 0.3 0.8 1010.3 0.0000 0.0000
09:37 13.2 8.9 75 157 0.3 0.8 1010.5 0.0000 0.0000
09:46 13.2 8.9 75 171 0.3 0.6 1010.6 0.0000 0.0000
09:57 13.3 9 75 158 0.6 1.1 1010.7 0.0000 0.0000
10:07 13.3 9 75 163 0.6 1.1 1010.6 0.0000 0.0000
10:17 13.3 9 75 174 0.3 0.8 1010.6 0.0000 0.0000
10:27 13.4 9.3 76 180 0.3 0.6 1010.7 0.0000 0.0000
10:38 13.4 9.3 76 187 0.3 0.8 1010.6 0.0000 0.0000
10:47 13.5 9.4 76 217 0.3 0.8 1010.7 0.0000 0.0000
10:57 13.5 9.6 77 197 0.6 1.4 1010.9 0.0000 0.0000
11:07 13.6 9.6 77 210 1.7 2.5 1010.9 0.0000 0.0000
11:18 13.7 9.9 78 209 0.8 1.4 1010.9 0.0000 0.0000
11:28 13.9 10.1 78 203 0.8 1.4 1011 0.0000 0.0000
11:37 14.1 10.3 78 184 0.8 1.9 1010.9 0.0000 0.0000
11:48 14.2 10.4 78 227 0.6 1.1 1010.9 0.0000 0.0000
11:58 14.3 10.5 78 174 0.8 1.9 1010.8 0.0000 0.0000
12:08 14.3 10.5 78 181 1.4 2.5 1010.7 0.0000 0.0000
12:17 14.4 10.8 79 159 0.8 1.7 1010.7 0.0000 0.0000
12:28 14.4 10.8 79 150 0.8 1.9 1010.7 0.1010 0.1000
12:38 14.5 10.9 79 150 1.1 1.7 1010.7 0.1010 0.1000
12:48 14.5 10.9 79 148 1.1 1.7 1010.7 0.1010 0.1000
12:59 14.5 10.9 79 155 0.8 1.4 1010.7 0.1010 0.1000
13:18 14.7 11.1 79 191 0.3 0.8 1010.7 0.1010 0.1000
13:28 14.8 11.4 80 160 0.8 1.7 1010.7 0.0000 0.1000
13:39 14.9 11.5 80 155 1.1 2.2 1010.7 0.0000 0.1000
13:49 14.9 11.5 80 156 0.6 1.7 1010.6 0.0000 0.1000
13:58 15 11.6 80 185 0.3 0.8 1010.5 0.0000 0.1000
14:09 15 11.4 79 164 0.8 1.4 1010.4 0.0000 0.1000
14:19 15 11.4 79 198 0.3 0.6 1010.3 0.0000 0.1000
14:30 15 11.2 78 232 0.3 0.6 1010.3 0.3030 0.4000
14:40 15 11.2 78 270 0.3 0.6 1010.3 0.7070 0.8000
14:50 15 11.2 78 233 0.3 0.6 1010.2 1.2120 1.3000
15:01 15 11.2 78 165 0.3 0.6 1010.2 1.6160 1.7000
15:11 15 11.4 79 225 0.3 0.8 1010.1 1.8180 1.9000
15:20 15 11.4 79 231 0.3 0.8 1010.1 1.8180 1.9000
15:31 15 11.4 79 232 0.3 0.8 1010 1.3130 1.9000
15:41 15 11.4 79 218 0.3 0.6 1010 0.8080 1.9000
15:51 15 11.4 79 162 0.6 1.4 1010 0.4040 1.9000
16:01 15.1 11.5 79 166 0.3 0.8 1009.9 0.2020 2.0000
16:11 15.1 11.7 80 164 0.6 1.1 1009.9 0.1010 2.0000
16:21 15.1 11.7 80 180 0.6 1.1 1009.9 0.1010 2.0000
16:31 15.1 11.7 80 163 0.6 1.1 1009.9 0.1010 2.0000
16:42 15.1 11.7 80 144 0.6 1.1 1009.9 0.1010 2.0000
16:52 15.2 11.8 80 161 0.3 0.8 1009.7 0.0000 2.0000
17:01 15.2 11.8 80 176 0.3 1.1 1009.9 0.0000 2.0000
17:11 15.2 11.8 80 149 0.6 1.1 1009.7 0.0000 2.0000
17:22 15.2 11.8 80 154 0.6 1.4 1009.7 0.0000 2.0000
17:32 15.2 12 81 156 0.6 1.1 1009.5 0.0000 2.0000
17:42 15.1 11.7 80 163 0.3 1.1 1009.5 0.0000 2.0000
17:52 15.1 11.7 80 150 0.6 1.4 1009.6 0.0000 2.0000
18:02 15 11.6 80 153 0.6 1.4 1009.5 0.0000 2.0000
18:12 15 11.8 81 150 0.6 0.8 1009.4 0.0000 2.0000
18:22 15 11.8 81 150 0.6 0.8 1009.5 0.0000 2.0000
18:33 15 11.8 81 155 0.6 1.1 1009.5 0.0000 2.0000
18:42 15 11.8 81 162 0.6 1.1 1009.5 0.0000 2.0000
18:52 15 11.8 81 146 0.8 1.4 1009.5 0.0000 2.0000
19:03 14.9 11.7 81 143 0.8 1.7 1009.4 0.0000 2.0000
19:13 14.9 11.7 81 132 1.1 1.9 1009.4 0.0000 2.0000
19:22 14.8 11.6 81 131 0.8 1.7 1009.4 0.0000 2.0000
19:32 14.8 11.8 82 135 0.8 1.7 1009.6 0.0000 2.0000
19:43 14.8 11.8 82 135 0.6 1.1 1009.7 0.0000 2.0000
19:53 14.8 11.8 82 135 0.6 1.1 1009.9 0.1010 2.1000
20:04 14.7 11.5 81 135 0.6 1.1 1009.9 0.3030 2.3000
20:14 14.7 11.3 80 0 0 1010 0.4040 2.4000
20:25 14.6 11.4 81 0 0 1010 0.7070 2.7000
20:34 14.6 11.2 80 0 0 1010.1 1.0100 3.0000
20:44 14.6 11.2 80 0 0 1010.2 1.0100 3.1000
20:54 14.5 11.3 81 0 0 1010.2 1.1110 3.3000
21:05 14.5 11.3 81 0 0 1010.1 1.3130 3.6000
21:15 14.5 11.3 81 0 0 1010.1 1.4140 3.8000
21:24 14.4 11 80 0 0 1010.2 1.5150 4.2000
21:35 14.4 11.2 81 0 0 1010.2 1.7170 4.7000
21:45 14.4 11.4 82 0 0 1010.2 1.7170 4.8000
21:55 14.4 11.4 82 0 0 1010.1 1.7170 5.1000
22:05 14.3 11.1 81 0 0 1010.1 1.6160 5.3000
22:15 14.3 11.1 81 0 0 1010 1.4140 5.3000
22:25 14.3 11.1 81 0 0 1010.1 1.0100 5.3000
22:35 14.3 11.1 81 0 0 1010.1 0.5050 5.3000
22:44 14.3 11.1 81 135 0.6 1.1 1010.1 0.4040 5.3000
22:53 14.2 11 81 145 0.6 0.6 1010.2 0.2020 5.3000
23:03 14.2 11 81 145 0.6 0.6 1010.2 0.0000 5.3000
23:14 14.2 11 81 145 0.6 0.6 1010.1 0.0000 5.3000
23:24 14.2 11 81 0 0 1010.2 0.0000 5.3000
23:37 14.2 11.2 82 145 0.6 0.6 1010.3 0.0000 5.3000
23:47 14.2 11.2 82 149 0.3 0.6 1010.3 0.0000 5.3000
23:57 14.2 11.4 83 149 0.3 0.6 1010.3 0.0000 5.3000

TAGESSTATISTIK

2022-09-24
TEMPERATUR
MITTEL
14.1
MAXIMUM
15.2
16:52
MINIMUM
13.0
05:44
LUFTDRUCK
MITTEL
1010.4
MAXIMUM
1012.3
00:04
MINIMUM
1009.4
18:12
TAUPUNKT
MITTEL
10.0
MAXIMUM
12.0
17:32
MINIMUM
8.2
05:04
FEUCHTIGKEIT
MITTEL
77
MAXIMUM
83
23:57
MINIMUM
70
00:04
WINDSTÄRKE
MITTEL
0.5
MAXIMUM
1.7
11:07
WINDBÖE
MITTEL
0.9
MAXIMUM
2.5
11:07
WINDRICHTUNG
VORHERRSCHENDE
SO
67.7%
N
0.0
NO
0.0
O
0.0
SO
67.7
S
23.4
SW
8.1
W
0.8
NW
0.0
NIEDERSCHLAG
REGEN STUNDE
1.8
REGEN TAG
5.3
TEMPERATUR (°C)
MINIMUM
13.0
MAXIMUM
15.2
MITTEL
14.1
LUFTDRUCK (hpa)
MINIMUM
1009.4
MAXIMUM
1012.3
MITTEL
1010.4
MESSGERÄT